createdAt,value
2018-07-19T00:01:45.296Z,0.00
2018-07-19T00:02:45.443Z,0.00
2018-07-19T00:03:45.617Z,0.00
2018-07-19T00:04:45.742Z,0.00
2018-07-19T00:05:45.889Z,0.00
2018-07-19T00:06:46.029Z,0.00
2018-07-19T00:07:46.173Z,0.00
2018-07-19T00:08:46.314Z,0.00
2018-07-19T00:09:46.455Z,0.00
2018-07-19T00:10:46.596Z,0.00
2018-07-19T00:11:46.739Z,0.00
2018-07-19T00:12:46.945Z,0.00
2018-07-19T00:13:46.959Z,0.00
2018-07-19T00:14:47.100Z,0.00
2018-07-19T00:15:47.242Z,0.00
2018-07-19T00:16:47.380Z,0.00
2018-07-19T00:17:47.517Z,0.00
2018-07-19T00:18:47.665Z,0.00
2018-07-19T00:19:47.793Z,0.00
2018-07-19T00:20:47.933Z,0.00
2018-07-19T00:21:48.079Z,0.00
2018-07-19T00:22:48.217Z,0.00
2018-07-19T00:23:48.360Z,0.00
2018-07-19T00:24:48.497Z,0.00
2018-07-19T00:25:48.635Z,0.00
2018-07-19T00:26:48.774Z,0.00
2018-07-19T00:27:48.913Z,0.00
2018-07-19T00:28:49.049Z,0.00
2018-07-19T00:29:49.207Z,0.00
2018-07-19T00:30:49.353Z,0.00
2018-07-19T00:31:49.487Z,0.00
2018-07-19T00:32:49.629Z,0.00
2018-07-19T00:33:49.810Z,0.00
2018-07-19T00:34:49.928Z,0.00
2018-07-19T00:35:50.067Z,0.00
2018-07-19T00:36:50.198Z,0.00
2018-07-19T00:37:50.361Z,0.00
2018-07-19T00:38:50.501Z,0.00
2018-07-19T00:39:50.638Z,0.00
2018-07-19T00:40:50.784Z,0.00
2018-07-19T00:41:50.935Z,0.00
2018-07-19T00:42:51.079Z,0.00
2018-07-19T00:43:51.218Z,0.00
2018-07-19T00:44:51.397Z,0.00
2018-07-19T00:45:51.526Z,0.00
2018-07-19T00:46:51.665Z,0.00
2018-07-19T00:47:51.829Z,0.00
2018-07-19T00:48:51.971Z,0.00
2018-07-19T00:49:52.108Z,0.00
2018-07-19T00:50:52.319Z,0.00
2018-07-19T00:51:52.425Z,0.00
2018-07-19T00:52:52.566Z,0.00
2018-07-19T00:53:52.709Z,0.00
2018-07-19T00:54:52.858Z,0.00
2018-07-19T00:55:52.993Z,0.00
2018-07-19T00:56:53.133Z,0.00
2018-07-19T00:57:53.274Z,0.00
2018-07-19T00:58:53.419Z,0.00
2018-07-19T00:59:53.554Z,0.00
2018-07-19T01:00:53.696Z,0.00
2018-07-19T01:01:53.831Z,0.00
2018-07-19T01:02:53.971Z,0.00
2018-07-19T01:03:54.108Z,0.00
2018-07-19T01:04:54.248Z,0.00
2018-07-19T01:05:54.390Z,0.00
2018-07-19T01:06:54.531Z,0.00
2018-07-19T01:07:54.669Z,0.00
2018-07-19T01:08:54.823Z,0.00
2018-07-19T01:09:54.965Z,0.00
2018-07-19T01:10:55.093Z,0.00
2018-07-19T01:11:55.252Z,0.00
2018-07-19T01:12:55.389Z,0.00
2018-07-19T01:13:55.521Z,0.00
2018-07-19T01:14:55.695Z,0.00
2018-07-19T01:15:55.830Z,0.00
2018-07-19T01:16:55.975Z,0.00
2018-07-19T01:17:56.111Z,0.00
2018-07-19T01:18:56.247Z,0.00
2018-07-19T01:19:56.391Z,0.00
2018-07-19T01:20:56.530Z,0.00
2018-07-19T01:21:56.687Z,0.00
2018-07-19T01:22:56.818Z,0.00
2018-07-19T01:23:56.962Z,0.00
2018-07-19T01:24:57.101Z,0.00
2018-07-19T01:25:57.235Z,0.00
2018-07-19T01:26:57.373Z,0.00
2018-07-19T01:27:57.535Z,0.00
2018-07-19T01:28:57.671Z,0.00
2018-07-19T01:29:57.804Z,0.00
2018-07-19T01:30:57.962Z,0.00
2018-07-19T01:31:58.101Z,0.00
2018-07-19T01:32:58.237Z,0.00
2018-07-19T01:33:58.409Z,0.00
2018-07-19T01:34:58.526Z,0.00
2018-07-19T01:35:58.665Z,0.00
2018-07-19T01:36:58.839Z,0.00
2018-07-19T01:37:58.973Z,0.00
2018-07-19T01:38:59.110Z,0.00
2018-07-19T01:39:59.325Z,0.00
2018-07-19T01:40:59.398Z,0.00
2018-07-19T01:41:59.541Z,0.00
2018-07-19T01:42:59.701Z,0.00
2018-07-19T01:43:59.838Z,0.00
2018-07-19T01:44:59.980Z,0.00
2018-07-19T01:46:00.141Z,0.00
2018-07-19T01:47:00.272Z,0.00
2018-07-19T01:48:00.413Z,0.00
2018-07-19T01:49:00.563Z,0.00
2018-07-19T01:50:00.702Z,0.00
2018-07-19T01:51:00.846Z,0.00
2018-07-19T01:52:00.985Z,0.00
2018-07-19T01:53:01.118Z,0.00
2018-07-19T01:54:01.257Z,0.00
2018-07-19T01:55:01.393Z,0.00
2018-07-19T01:56:01.534Z,0.00
2018-07-19T01:57:01.675Z,0.00
2018-07-19T01:58:01.812Z,0.00
2018-07-19T01:59:01.955Z,0.00
2018-07-19T02:00:02.160Z,0.00
2018-07-19T02:01:02.237Z,0.00
2018-07-19T02:02:02.382Z,0.00
2018-07-19T02:03:02.511Z,0.00
2018-07-19T02:04:02.653Z,0.00
2018-07-19T02:05:02.799Z,0.00
2018-07-19T02:06:02.935Z,0.00
2018-07-19T02:07:03.085Z,0.00
2018-07-19T02:08:03.229Z,0.00
2018-07-19T02:09:03.370Z,0.00
2018-07-19T02:10:03.513Z,0.00
2018-07-19T02:11:03.676Z,0.00
2018-07-19T02:12:03.805Z,0.00
2018-07-19T02:13:03.971Z,0.00
2018-07-19T02:14:04.099Z,0.00
2018-07-19T02:15:04.235Z,0.00
2018-07-19T02:16:04.385Z,0.00
2018-07-19T02:17:04.522Z,0.00
2018-07-19T02:18:04.664Z,0.00
2018-07-19T02:19:04.832Z,0.00
2018-07-19T02:20:04.968Z,0.00
2018-07-19T02:21:05.112Z,0.00
2018-07-19T02:22:05.281Z,0.00
2018-07-19T02:23:05.416Z,0.00
2018-07-19T02:24:05.549Z,0.00
2018-07-19T02:25:05.713Z,0.00
2018-07-19T02:26:05.846Z,0.00
2018-07-19T02:27:05.985Z,0.00
2018-07-19T02:28:06.152Z,0.00
2018-07-19T02:29:06.291Z,0.00
2018-07-19T02:30:06.423Z,0.00
2018-07-19T02:31:06.573Z,0.00
2018-07-19T02:32:06.714Z,0.00
2018-07-19T02:33:06.850Z,0.00
2018-07-19T02:34:06.988Z,0.00
2018-07-19T02:35:07.159Z,0.00
2018-07-19T02:36:07.361Z,0.00
2018-07-19T02:37:07.374Z,0.00
2018-07-19T02:38:07.515Z,0.00
2018-07-19T02:39:07.700Z,0.00
2018-07-19T02:40:07.815Z,0.00
2018-07-19T02:41:07.955Z,0.00
2018-07-19T02:42:08.086Z,0.00
2018-07-19T02:43:08.265Z,0.00
2018-07-19T02:44:08.398Z,0.00
2018-07-19T02:45:08.534Z,0.00
2018-07-19T02:46:08.676Z,0.00
2018-07-19T02:47:08.832Z,0.00
2018-07-19T02:48:08.963Z,0.00
2018-07-19T02:49:09.102Z,0.00
2018-07-19T02:50:09.237Z,0.00
2018-07-19T02:51:09.375Z,0.00
2018-07-19T02:52:09.513Z,0.00
2018-07-19T02:53:09.652Z,0.00
2018-07-19T02:54:09.790Z,0.00
2018-07-19T02:55:09.931Z,0.00
2018-07-19T02:56:10.071Z,0.00
2018-07-19T02:57:10.205Z,0.00
2018-07-19T02:58:10.344Z,0.00
2018-07-19T02:59:10.479Z,0.00
2018-07-19T03:00:10.618Z,0.00
2018-07-19T03:01:10.758Z,0.00
2018-07-19T03:02:10.951Z,0.00
2018-07-19T03:03:11.033Z,0.00
2018-07-19T03:04:11.181Z,0.00
2018-07-19T03:05:11.321Z,0.00
2018-07-19T03:06:11.464Z,0.00
2018-07-19T03:07:11.604Z,0.00
2018-07-19T03:08:11.740Z,0.00
2018-07-19T03:09:11.898Z,0.00
2018-07-19T03:10:12.033Z,0.00
2018-07-19T03:11:12.177Z,0.00
2018-07-19T03:12:12.315Z,0.00
2018-07-19T03:13:12.455Z,0.00
2018-07-19T03:14:12.597Z,0.00
2018-07-19T03:15:12.736Z,0.00
2018-07-19T03:16:12.888Z,0.00
2018-07-19T03:17:13.022Z,0.00
2018-07-19T03:18:13.163Z,0.00
2018-07-19T03:19:13.317Z,0.00
2018-07-19T03:20:13.458Z,0.00
2018-07-19T03:21:13.599Z,0.00
2018-07-19T03:22:13.738Z,0.00
2018-07-19T03:23:13.875Z,0.00
2018-07-19T03:24:14.015Z,0.00
2018-07-19T03:25:14.153Z,0.00
2018-07-19T03:26:14.290Z,0.00
2018-07-19T03:27:14.429Z,0.00
2018-07-19T03:28:14.565Z,0.00
2018-07-19T03:29:14.708Z,0.00
2018-07-19T03:30:14.847Z,0.00
2018-07-19T03:31:14.971Z,0.00
2018-07-19T03:32:15.110Z,5.63
2018-07-19T03:33:15.249Z,5.63
2018-07-19T03:34:15.388Z,5.63
2018-07-19T03:35:15.516Z,5.63
2018-07-19T03:36:15.656Z,5.63
2018-07-19T03:37:15.799Z,5.63
2018-07-19T03:38:15.930Z,5.63
2018-07-19T03:39:16.067Z,5.63
2018-07-19T03:40:16.288Z,5.63
2018-07-19T03:41:16.386Z,5.63
2018-07-19T03:42:16.517Z,5.63
2018-07-19T03:43:16.657Z,11.25
2018-07-19T03:44:16.789Z,11.25
2018-07-19T03:45:16.923Z,11.25
2018-07-19T03:46:17.064Z,11.25
2018-07-19T03:47:17.201Z,11.25
2018-07-19T03:48:17.352Z,11.25
2018-07-19T03:49:17.483Z,11.25
2018-07-19T03:50:17.619Z,11.25
2018-07-19T03:51:17.780Z,16.88
2018-07-19T03:52:17.916Z,16.88
2018-07-19T03:53:18.060Z,16.88
2018-07-19T03:54:18.194Z,16.88
2018-07-19T03:55:18.605Z,16.88
2018-07-19T03:56:18.492Z,16.88
2018-07-19T03:57:18.630Z,16.88
2018-07-19T03:58:18.757Z,16.88
2018-07-19T03:59:18.894Z,22.50
2018-07-19T04:00:19.040Z,22.50
2018-07-19T04:01:19.176Z,22.50
2018-07-19T04:02:19.512Z,22.50
2018-07-19T04:03:19.512Z,22.50
2018-07-19T04:04:19.650Z,22.50
2018-07-19T04:05:19.790Z,22.50
2018-07-19T04:06:19.925Z,22.50
2018-07-19T04:07:20.066Z,28.13
2018-07-19T04:08:20.202Z,28.13
2018-07-19T04:09:20.343Z,28.13
2018-07-19T04:10:20.485Z,28.13
2018-07-19T04:11:20.623Z,28.13
2018-07-19T04:12:20.813Z,28.13
2018-07-19T04:13:20.951Z,33.75
2018-07-19T04:14:21.090Z,33.75
2018-07-19T04:15:21.239Z,33.75
2018-07-19T04:16:21.377Z,33.75
2018-07-19T04:17:21.517Z,33.75
2018-07-19T04:18:21.669Z,33.75
2018-07-19T04:19:21.803Z,39.38
2018-07-19T04:20:21.941Z,39.38
2018-07-19T04:21:22.082Z,39.38
2018-07-19T04:22:22.219Z,39.38
2018-07-19T04:23:22.359Z,39.38
2018-07-19T04:24:22.501Z,39.38
2018-07-19T04:25:22.639Z,39.38
2018-07-19T04:26:22.776Z,39.38
2018-07-19T04:27:22.910Z,45.00
2018-07-19T04:28:23.074Z,45.00
2018-07-19T04:29:23.203Z,45.00
2018-07-19T04:30:23.337Z,45.00
2018-07-19T04:31:23.477Z,45.00
2018-07-19T04:32:23.649Z,45.00
2018-07-19T04:33:23.759Z,45.00
2018-07-19T04:34:23.900Z,45.00
2018-07-19T04:35:24.037Z,45.00
2018-07-19T04:36:24.181Z,50.63
2018-07-19T04:37:24.318Z,50.63
2018-07-19T04:38:24.462Z,50.63
2018-07-19T04:39:24.608Z,50.63
2018-07-19T04:40:24.741Z,50.63
2018-07-19T04:41:24.877Z,50.63
2018-07-19T04:42:25.019Z,50.63
2018-07-19T04:43:25.156Z,50.63
2018-07-19T04:44:25.297Z,50.63
2018-07-19T04:45:25.437Z,50.63
2018-07-19T04:46:25.570Z,50.63
2018-07-19T04:47:25.714Z,50.63
2018-07-19T04:48:25.854Z,56.25
2018-07-19T04:49:25.989Z,56.25
2018-07-19T04:50:26.129Z,56.25
2018-07-19T04:51:26.271Z,56.25
2018-07-19T04:52:26.425Z,56.25
2018-07-19T04:53:26.562Z,56.25
2018-07-19T04:54:26.700Z,56.25
2018-07-19T04:55:26.841Z,56.25
2018-07-19T04:56:26.975Z,56.25
2018-07-19T04:57:27.131Z,56.25
2018-07-19T04:58:27.268Z,56.25
2018-07-19T04:59:27.405Z,56.25
2018-07-19T05:00:27.539Z,56.25
2018-07-19T05:01:27.674Z,56.25
2018-07-19T05:02:27.804Z,56.25
2018-07-19T05:03:27.948Z,56.25
2018-07-19T05:04:28.116Z,56.25
2018-07-19T05:05:28.244Z,56.25
2018-07-19T05:06:28.383Z,56.25
2018-07-19T05:07:29.322Z,61.88
2018-07-19T05:08:28.691Z,61.88
2018-07-19T05:09:28.823Z,61.88
2018-07-19T05:10:28.967Z,56.25
2018-07-19T05:11:29.138Z,56.25
2018-07-19T05:12:29.302Z,61.88
2018-07-19T05:13:29.457Z,61.88
2018-07-19T05:14:29.596Z,61.88
2018-07-19T05:15:29.742Z,61.88
2018-07-19T05:16:29.886Z,61.88
2018-07-19T05:17:30.019Z,61.88
2018-07-19T05:18:30.162Z,61.88
2018-07-19T05:19:30.303Z,61.88
2018-07-19T05:20:30.435Z,61.88
2018-07-19T05:21:30.589Z,61.88
2018-07-19T05:22:30.727Z,61.88
2018-07-19T05:23:30.892Z,61.88
2018-07-19T05:24:31.051Z,61.88
2018-07-19T05:25:31.188Z,61.88
2018-07-19T05:26:31.320Z,56.25
2018-07-19T05:27:31.453Z,56.25
2018-07-19T05:28:31.602Z,56.25
2018-07-19T05:29:31.743Z,56.25
2018-07-19T05:30:31.880Z,61.88
2018-07-19T05:31:32.018Z,61.88
2018-07-19T05:32:32.169Z,56.25
2018-07-19T05:33:32.301Z,61.88
2018-07-19T05:34:32.485Z,61.88
2018-07-19T05:35:32.602Z,61.88
2018-07-19T05:36:32.743Z,67.50
2018-07-19T05:37:32.881Z,67.50
2018-07-19T05:38:33.022Z,67.50
2018-07-19T05:39:33.145Z,67.50
2018-07-19T05:40:33.314Z,67.50
2018-07-19T05:41:33.467Z,67.50
2018-07-19T05:42:33.580Z,67.50
2018-07-19T05:43:33.715Z,67.50
2018-07-19T05:44:33.853Z,67.50
2018-07-19T05:45:34.028Z,67.50
2018-07-19T05:46:34.162Z,67.50
2018-07-19T05:47:34.297Z,67.50
2018-07-19T05:48:34.442Z,67.50
2018-07-19T05:49:34.582Z,67.50
2018-07-19T05:50:34.721Z,67.50
2018-07-19T05:51:34.858Z,67.50
2018-07-19T05:52:34.998Z,67.50
2018-07-19T05:53:35.137Z,67.50
2018-07-19T05:54:35.275Z,67.50
2018-07-19T05:55:35.415Z,67.50
2018-07-19T05:56:35.558Z,67.50
2018-07-19T05:57:35.693Z,67.50
2018-07-19T05:58:35.835Z,67.50
2018-07-19T05:59:35.976Z,67.50
2018-07-19T06:00:36.117Z,67.50
2018-07-19T06:01:36.250Z,67.50
2018-07-19T06:02:36.393Z,67.50
2018-07-19T06:03:36.543Z,67.50
2018-07-19T06:04:36.674Z,67.50
2018-07-19T06:05:36.814Z,67.50
2018-07-19T06:06:36.949Z,67.50
2018-07-19T06:07:37.105Z,67.50
2018-07-19T06:08:37.249Z,67.50
2018-07-19T06:09:37.424Z,67.50
2018-07-19T06:10:37.536Z,67.50
2018-07-19T06:11:37.678Z,73.13
2018-07-19T06:12:37.817Z,67.50
2018-07-19T06:13:37.960Z,67.50
2018-07-19T06:14:38.089Z,67.50
2018-07-19T06:15:38.238Z,73.13
2018-07-19T06:16:38.373Z,73.13
2018-07-19T06:17:38.532Z,67.50
2018-07-19T06:18:38.705Z,67.50
2018-07-19T06:19:38.823Z,67.50
2018-07-19T06:20:38.984Z,67.50
2018-07-19T06:21:39.122Z,67.50
2018-07-19T06:22:39.272Z,67.50
2018-07-19T06:23:39.408Z,67.50
2018-07-19T06:24:39.550Z,67.50
2018-07-19T06:25:39.687Z,67.50
2018-07-19T06:26:39.824Z,67.50
2018-07-19T06:27:39.960Z,67.50
2018-07-19T06:28:40.094Z,67.50
2018-07-19T06:29:40.235Z,67.50
2018-07-19T06:30:40.400Z,67.50
2018-07-19T06:31:40.532Z,67.50
2018-07-19T06:32:40.674Z,67.50
2018-07-19T06:33:40.812Z,67.50
2018-07-19T06:34:40.957Z,73.13
2018-07-19T06:35:41.111Z,67.50
2018-07-19T06:36:41.250Z,67.50
2018-07-19T06:37:41.394Z,67.50
2018-07-19T06:38:41.532Z,73.13
2018-07-19T06:39:41.669Z,73.13
2018-07-19T06:40:41.810Z,73.13
2018-07-19T06:41:41.977Z,73.13
2018-07-19T06:42:42.118Z,73.13
2018-07-19T06:43:42.263Z,73.13
2018-07-19T06:44:42.411Z,73.13
2018-07-19T06:45:42.548Z,73.13
2018-07-19T06:46:42.690Z,73.13
2018-07-19T06:47:42.847Z,73.13
2018-07-19T06:48:42.986Z,73.13
2018-07-19T06:49:43.121Z,73.13
2018-07-19T06:50:43.264Z,73.13
2018-07-19T06:51:43.406Z,73.13
2018-07-19T06:52:43.544Z,73.13
2018-07-19T06:53:43.689Z,73.13
2018-07-19T06:54:43.826Z,73.13
2018-07-19T06:55:43.996Z,73.13
2018-07-19T06:56:44.126Z,73.13
2018-07-19T06:57:44.266Z,73.13
2018-07-19T06:58:44.401Z,73.13
2018-07-19T06:59:44.558Z,73.13
2018-07-19T07:00:44.711Z,73.13
2018-07-19T07:01:44.845Z,73.13
2018-07-19T07:02:44.996Z,73.13
2018-07-19T07:03:45.131Z,73.13
2018-07-19T07:04:45.262Z,73.13
2018-07-19T07:05:45.418Z,73.13
2018-07-19T07:06:45.550Z,73.13
2018-07-19T07:07:45.686Z,73.13
2018-07-19T07:08:45.861Z,73.13
2018-07-19T07:09:45.999Z,73.13
2018-07-19T07:10:46.144Z,73.13
2018-07-19T07:11:46.288Z,73.13
2018-07-19T07:12:46.437Z,73.13
2018-07-19T07:13:46.570Z,73.13
2018-07-19T07:14:46.711Z,73.13
2018-07-19T07:15:46.869Z,73.13
2018-07-19T07:16:47.004Z,73.13
2018-07-19T07:17:47.159Z,73.13
2018-07-19T07:18:47.320Z,73.13
2018-07-19T07:19:47.460Z,73.13
2018-07-19T07:20:47.599Z,73.13
2018-07-19T07:21:47.745Z,78.75
2018-07-19T07:22:47.884Z,73.13
2018-07-19T07:23:48.029Z,73.13
2018-07-19T07:24:48.166Z,73.13
2018-07-19T07:25:48.308Z,78.75
2018-07-19T07:26:48.451Z,78.75
2018-07-19T07:27:48.595Z,78.75
2018-07-19T07:28:48.746Z,78.75
2018-07-19T07:29:48.884Z,78.75
2018-07-19T07:30:49.025Z,78.75
2018-07-19T07:31:49.169Z,78.75
2018-07-19T07:32:49.312Z,78.75
2018-07-19T07:33:49.481Z,78.75
2018-07-19T07:34:49.617Z,78.75
2018-07-19T07:35:49.763Z,78.75
2018-07-19T07:36:49.893Z,78.75
2018-07-19T07:37:50.032Z,78.75
2018-07-19T07:38:50.180Z,78.75
2018-07-19T07:39:50.319Z,78.75
2018-07-19T07:40:50.458Z,78.75
2018-07-19T07:41:50.607Z,78.75
2018-07-19T07:42:50.752Z,78.75
2018-07-19T07:43:50.887Z,78.75
2018-07-19T07:44:51.029Z,78.75
2018-07-19T07:45:51.209Z,78.75
2018-07-19T07:46:51.362Z,78.75
2018-07-19T07:47:51.496Z,78.75
2018-07-19T07:48:51.661Z,78.75
2018-07-19T07:49:51.805Z,78.75
2018-07-19T07:50:51.944Z,78.75
2018-07-19T07:51:52.091Z,78.75
2018-07-19T07:52:52.226Z,78.75
2018-07-19T07:53:52.365Z,78.75
2018-07-19T07:54:52.506Z,78.75
2018-07-19T07:55:52.644Z,78.75
2018-07-19T07:56:52.788Z,78.75
2018-07-19T07:57:53.686Z,78.75
2018-07-19T07:58:53.086Z,78.75
2018-07-19T07:59:53.227Z,78.75
2018-07-19T08:00:53.419Z,78.75
2018-07-19T08:01:53.578Z,78.75
2018-07-19T08:02:53.721Z,78.75
2018-07-19T08:03:53.872Z,78.75
2018-07-19T08:04:54.015Z,78.75
2018-07-19T08:05:54.160Z,78.75
2018-07-19T08:06:54.295Z,78.75
2018-07-19T08:07:54.440Z,78.75
2018-07-19T08:08:54.609Z,78.75
2018-07-19T08:09:54.720Z,78.75
2018-07-19T08:10:54.858Z,78.75
2018-07-19T08:11:54.995Z,78.75
2018-07-19T08:12:55.163Z,78.75
2018-07-19T08:13:55.298Z,78.75
2018-07-19T08:14:55.439Z,78.75
2018-07-19T08:15:55.659Z,78.75
2018-07-19T08:16:55.724Z,78.75
2018-07-19T08:17:55.866Z,78.75
2018-07-19T08:18:56.001Z,78.75
2018-07-19T08:19:56.154Z,78.75
2018-07-19T08:20:56.351Z,78.75
2018-07-19T08:21:56.481Z,78.75
2018-07-19T08:22:56.628Z,78.75
2018-07-19T08:23:56.851Z,84.38
2018-07-19T08:24:56.926Z,84.38
2018-07-19T08:25:57.062Z,84.38
2018-07-19T08:26:57.203Z,84.38
2018-07-19T08:27:57.386Z,84.38
2018-07-19T08:28:57.506Z,84.38
2018-07-19T08:29:57.637Z,84.38
2018-07-19T08:30:57.786Z,84.38
2018-07-19T08:31:57.957Z,84.38
2018-07-19T08:32:58.093Z,84.38
2018-07-19T08:33:58.232Z,84.38
2018-07-19T08:34:58.399Z,84.38
2018-07-19T08:35:58.596Z,84.38
2018-07-19T08:36:58.668Z,84.38
2018-07-19T08:37:58.835Z,84.38
2018-07-19T08:38:58.968Z,84.38
2018-07-19T08:39:59.142Z,84.38
2018-07-19T08:40:59.346Z,84.38
2018-07-19T08:41:59.447Z,84.38
2018-07-19T08:42:59.597Z,84.38
2018-07-19T08:43:59.743Z,84.38
2018-07-19T08:44:59.894Z,90.00
2018-07-19T08:46:00.026Z,90.00
2018-07-19T08:47:00.170Z,90.00
2018-07-19T08:48:00.405Z,90.00
2018-07-19T08:49:00.465Z,90.00
2018-07-19T08:50:00.609Z,90.00
2018-07-19T08:51:00.765Z,90.00
2018-07-19T08:52:00.909Z,90.00
2018-07-19T08:53:01.071Z,90.00
2018-07-19T08:54:01.222Z,90.00
2018-07-19T08:55:01.368Z,90.00
2018-07-19T08:56:01.522Z,90.00
2018-07-19T08:57:01.686Z,90.00
2018-07-19T08:58:01.825Z,90.00
2018-07-19T08:59:01.964Z,90.00
2018-07-19T09:00:02.106Z,90.00
2018-07-19T09:01:02.340Z,90.00
2018-07-19T09:02:02.419Z,90.00
2018-07-19T09:03:02.550Z,90.00
2018-07-19T09:04:02.689Z,90.00
2018-07-19T09:05:02.862Z,90.00
2018-07-19T09:06:02.986Z,90.00
2018-07-19T09:07:03.136Z,90.00
2018-07-19T09:08:03.279Z,95.63
2018-07-19T09:09:03.442Z,95.63
2018-07-19T09:10:03.588Z,95.63
2018-07-19T09:11:03.744Z,95.63
2018-07-19T09:12:03.899Z,95.63
2018-07-19T09:13:04.081Z,95.63
2018-07-19T09:14:04.201Z,95.63
2018-07-19T09:15:04.324Z,95.63
2018-07-19T09:16:04.549Z,95.63
2018-07-19T09:17:04.635Z,95.63
2018-07-19T09:18:04.780Z,95.63
2018-07-19T09:19:04.919Z,95.63
2018-07-19T09:20:05.060Z,95.63
2018-07-19T09:21:05.285Z,95.63
2018-07-19T09:22:05.313Z,101.25
2018-07-19T09:23:05.457Z,101.25
2018-07-19T09:24:05.594Z,101.25
2018-07-19T09:25:05.767Z,101.25
2018-07-19T09:26:05.914Z,101.25
2018-07-19T09:27:06.060Z,101.25
2018-07-19T09:28:06.232Z,101.25
2018-07-19T09:29:06.379Z,101.25
2018-07-19T09:30:06.521Z,101.25
2018-07-19T09:31:06.666Z,101.25
2018-07-19T09:32:06.812Z,101.25
2018-07-19T09:33:06.952Z,101.25
2018-07-19T09:34:07.102Z,101.25
2018-07-19T09:35:07.242Z,101.25
2018-07-19T09:36:07.381Z,101.25
2018-07-19T09:37:07.569Z,101.25
2018-07-19T09:38:07.709Z,101.25
2018-07-19T09:39:07.854Z,101.25
2018-07-19T09:40:07.997Z,101.25
2018-07-19T09:41:08.147Z,106.88
2018-07-19T09:42:08.294Z,106.88
2018-07-19T09:43:08.443Z,106.88
2018-07-19T09:44:08.576Z,101.25
2018-07-19T09:45:08.755Z,106.88
2018-07-19T09:46:08.896Z,106.88
2018-07-19T09:47:09.043Z,106.88
2018-07-19T09:48:09.190Z,106.88
2018-07-19T09:49:09.387Z,106.88
2018-07-19T09:50:09.532Z,106.88
2018-07-19T09:51:09.689Z,106.88
2018-07-19T09:52:09.820Z,106.88
2018-07-19T09:53:09.987Z,106.88
2018-07-19T09:54:10.138Z,106.88
2018-07-19T09:55:10.269Z,106.88
2018-07-19T09:56:10.409Z,106.88
2018-07-19T09:57:10.567Z,112.50
2018-07-19T09:58:10.706Z,112.50
2018-07-19T09:59:10.848Z,112.50
2018-07-19T10:00:11.026Z,112.50
2018-07-19T10:01:11.154Z,112.50
2018-07-19T10:02:11.295Z,112.50
2018-07-19T10:03:11.443Z,118.13
2018-07-19T10:04:11.630Z,112.50
2018-07-19T10:05:11.731Z,112.50
2018-07-19T10:06:11.875Z,112.50
2018-07-19T10:07:12.100Z,112.50
2018-07-19T10:08:12.190Z,112.50
2018-07-19T10:09:12.336Z,118.13
2018-07-19T10:10:12.542Z,112.50
2018-07-19T10:11:12.645Z,118.13
2018-07-19T10:12:12.778Z,112.50
2018-07-19T10:13:12.928Z,118.13
2018-07-19T10:14:13.071Z,118.13
2018-07-19T10:15:13.212Z,118.13
2018-07-19T10:16:13.356Z,118.13
2018-07-19T10:17:13.795Z,118.13
2018-07-19T10:18:13.685Z,118.13
2018-07-19T10:19:13.824Z,118.13
2018-07-19T10:20:13.966Z,118.13
2018-07-19T10:21:14.107Z,118.13
2018-07-19T10:22:14.276Z,123.75
2018-07-19T10:23:14.394Z,123.75
2018-07-19T10:24:14.547Z,123.75
2018-07-19T10:25:14.674Z,123.75
2018-07-19T10:26:14.823Z,123.75
2018-07-19T10:27:14.966Z,123.75
2018-07-19T10:28:15.105Z,123.75
2018-07-19T10:29:15.248Z,123.75
2018-07-19T10:30:15.388Z,129.38
2018-07-19T10:31:15.535Z,129.38
2018-07-19T10:32:15.781Z,129.38
2018-07-19T10:33:15.817Z,129.38
2018-07-19T10:34:15.960Z,129.38
2018-07-19T10:35:16.104Z,129.38
2018-07-19T10:36:16.245Z,129.38
2018-07-19T10:37:16.387Z,135.00
2018-07-19T10:38:16.528Z,135.00
2018-07-19T10:39:16.670Z,135.00
2018-07-19T10:40:16.821Z,135.00
2018-07-19T10:41:16.967Z,135.00
2018-07-19T10:42:17.106Z,140.63
2018-07-19T10:43:17.250Z,140.63
2018-07-19T10:44:17.439Z,140.63
2018-07-19T10:45:17.536Z,140.63
2018-07-19T10:46:17.687Z,140.63
2018-07-19T10:47:17.859Z,140.63
2018-07-19T10:48:17.985Z,140.63
2018-07-19T10:49:18.135Z,146.25
2018-07-19T10:50:18.277Z,146.25
2018-07-19T10:51:18.440Z,146.25
2018-07-19T10:52:18.579Z,146.25
2018-07-19T10:53:18.720Z,151.88
2018-07-19T10:54:18.873Z,151.88
2018-07-19T10:55:19.031Z,151.88
2018-07-19T10:56:19.173Z,151.88
2018-07-19T10:57:19.347Z,151.88
2018-07-19T10:58:19.547Z,151.88
2018-07-19T10:59:19.560Z,157.50
2018-07-19T11:00:19.726Z,157.50
2018-07-19T11:01:19.860Z,157.50
2018-07-19T11:02:20.001Z,157.50
2018-07-19T11:03:20.143Z,157.50
2018-07-19T11:04:20.300Z,157.50
2018-07-19T11:05:20.440Z,157.50
2018-07-19T11:06:20.568Z,157.50
2018-07-19T11:07:20.779Z,157.50
2018-07-19T11:08:20.926Z,157.50
2018-07-19T11:09:21.080Z,157.50
2018-07-19T11:10:21.215Z,157.50
2018-07-19T11:11:21.357Z,157.50
2018-07-19T11:12:21.504Z,157.50
2018-07-19T11:13:21.664Z,157.50
2018-07-19T11:14:21.817Z,157.50
2018-07-19T11:15:21.959Z,157.50
2018-07-19T11:16:22.162Z,157.50
2018-07-19T11:17:22.257Z,157.50
2018-07-19T11:18:22.400Z,157.50
2018-07-19T11:19:22.546Z,157.50
2018-07-19T11:20:22.688Z,168.75
2018-07-19T11:21:22.832Z,157.50
2018-07-19T11:22:23.064Z,163.13
2018-07-19T11:23:23.080Z,163.13
2018-07-19T11:24:23.225Z,163.13
2018-07-19T11:25:23.374Z,163.13
2018-07-19T11:26:23.511Z,163.13
2018-07-19T11:27:23.660Z,163.13
2018-07-19T11:28:23.825Z,174.38
2018-07-19T11:29:23.947Z,163.13
2018-07-19T11:30:24.089Z,168.75
2018-07-19T11:31:24.232Z,168.75
2018-07-19T11:32:24.375Z,168.75
2018-07-19T11:33:24.519Z,168.75
2018-07-19T11:34:24.660Z,168.75
2018-07-19T11:35:24.806Z,174.38
2018-07-19T11:36:24.945Z,174.38
2018-07-19T11:37:25.091Z,174.38
2018-07-19T11:38:25.239Z,174.38
2018-07-19T11:39:25.377Z,174.38
2018-07-19T11:40:25.512Z,174.38
2018-07-19T11:41:25.658Z,174.38
2018-07-19T11:42:25.797Z,180.00
2018-07-19T11:43:25.942Z,180.00
2018-07-19T11:44:26.107Z,180.00
2018-07-19T11:45:26.287Z,180.00
2018-07-19T11:46:26.393Z,180.00
2018-07-19T11:47:26.536Z,180.00
2018-07-19T11:48:26.712Z,180.00
2018-07-19T11:49:26.850Z,180.00
2018-07-19T11:50:26.997Z,180.00
2018-07-19T11:51:27.155Z,185.63
2018-07-19T11:52:27.306Z,185.63
2018-07-19T11:53:27.445Z,185.63
2018-07-19T11:54:27.593Z,191.25
2018-07-19T11:55:27.738Z,185.63
2018-07-19T11:56:27.915Z,191.25
2018-07-19T11:57:28.063Z,191.25
2018-07-19T11:58:28.201Z,191.25
2018-07-19T11:59:28.387Z,196.88
2018-07-19T12:00:28.519Z,196.88
2018-07-19T12:01:28.685Z,196.88
2018-07-19T12:02:28.830Z,196.88
2018-07-19T12:03:28.992Z,196.88
2018-07-19T12:04:29.141Z,196.88
2018-07-19T12:05:29.295Z,202.50
2018-07-19T12:06:29.439Z,202.50
2018-07-19T12:07:29.651Z,196.88
2018-07-19T12:08:29.783Z,202.50
2018-07-19T12:09:29.927Z,202.50
2018-07-19T12:10:30.071Z,202.50
2018-07-19T12:11:30.222Z,208.13
2018-07-19T12:12:30.368Z,208.13
2018-07-19T12:13:30.509Z,208.13
2018-07-19T12:14:30.648Z,213.75
2018-07-19T12:15:30.816Z,213.75
2018-07-19T12:16:31.575Z,213.75
2018-07-19T12:17:31.112Z,208.13
2018-07-19T12:18:31.278Z,213.75
2018-07-19T12:19:31.400Z,213.75
2018-07-19T12:20:31.572Z,219.38
2018-07-19T12:21:31.713Z,219.38
2018-07-19T12:22:31.876Z,219.38
2018-07-19T12:23:32.022Z,219.38
2018-07-19T12:24:32.193Z,219.38
2018-07-19T12:25:32.345Z,219.38
2018-07-19T12:26:32.488Z,219.38
2018-07-19T12:27:32.638Z,219.38
2018-07-19T12:28:32.777Z,219.38
2018-07-19T12:29:32.928Z,219.38
2018-07-19T12:30:33.068Z,219.38
2018-07-19T12:31:33.232Z,219.38
2018-07-19T12:32:33.371Z,219.38
2018-07-19T12:33:33.514Z,225.00
2018-07-19T12:34:33.653Z,225.00
2018-07-19T12:35:33.796Z,225.00
2018-07-19T12:36:33.942Z,225.00
2018-07-19T12:37:34.094Z,225.00
2018-07-19T12:38:34.237Z,225.00
2018-07-19T12:39:34.385Z,225.00
2018-07-19T12:40:34.528Z,225.00
2018-07-19T12:41:34.671Z,230.63
2018-07-19T12:42:34.825Z,230.63
2018-07-19T12:43:34.971Z,230.63
2018-07-19T12:44:35.116Z,230.63
2018-07-19T12:45:35.260Z,230.63
2018-07-19T12:46:35.431Z,230.63
2018-07-19T12:47:35.584Z,230.63
2018-07-19T12:48:35.734Z,236.25
2018-07-19T12:49:35.881Z,230.63
2018-07-19T12:50:36.028Z,230.63
2018-07-19T12:51:36.172Z,230.63
2018-07-19T12:52:36.318Z,230.63
2018-07-19T12:53:36.465Z,236.25
2018-07-19T12:54:36.610Z,236.25
2018-07-19T12:55:36.758Z,236.25